sensor_id;sensor_type;location;lat;lon;timestamp;P1;durP1;ratioP1;P2;durP2;ratioP2
50631;SDS011;49583;45.590;-122.498;2023-06-14T00:00:22;1.00;;;0.50;;
50631;SDS011;49583;45.590;-122.498;2023-06-14T00:03:09;1.60;;;0.40;;
50631;SDS011;49583;45.590;-122.498;2023-06-14T00:05:50;2.10;;;0.40;;
50631;SDS011;49583;45.590;-122.498;2023-06-14T00:08:13;1.40;;;0.40;;
50631;SDS011;49583;45.590;-122.498;2023-06-14T00:10:46;0.60;;;0.40;;
50631;SDS011;49583;45.590;-122.498;2023-06-14T00:13:03;3.30;;;0.30;;
50631;SDS011;49583;45.590;-122.498;2023-06-14T00:15:16;3.80;;;0.30;;
50631;SDS011;49583;45.590;-122.498;2023-06-14T00:17:38;1.50;;;0.30;;
50631;SDS011;49583;45.590;-122.498;2023-06-14T00:19:52;1.10;;;0.40;;
50631;SDS011;49583;45.590;-122.498;2023-06-14T00:22:16;3.70;;;0.50;;
50631;SDS011;49583;45.590;-122.498;2023-06-14T00:24:38;1.40;;;0.30;;
50631;SDS011;49583;45.590;-122.498;2023-06-14T00:26:51;2.60;;;0.40;;
50631;SDS011;49583;45.590;-122.498;2023-06-14T00:29:08;4.90;;;0.60;;
50631;SDS011;49583;45.590;-122.498;2023-06-14T00:31:32;0.80;;;0.40;;
50631;SDS011;49583;45.590;-122.498;2023-06-14T00:33:47;1.60;;;0.50;;
50631;SDS011;49583;45.590;-122.498;2023-06-14T00:36:20;0.80;;;0.40;;
50631;SDS011;49583;45.590;-122.498;2023-06-14T00:38:33;0.50;;;0.50;;
50631;SDS011;49583;45.590;-122.498;2023-06-14T00:40:50;1.50;;;0.50;;
50631;SDS011;49583;45.590;-122.498;2023-06-14T00:45:24;7.30;;;0.60;;
50631;SDS011;49583;45.590;-122.498;2023-06-14T00:48:00;1.80;;;0.40;;
50631;SDS011;49583;45.590;-122.498;2023-06-14T00:50:14;1.00;;;0.40;;
50631;SDS011;49583;45.590;-122.498;2023-06-14T00:52:27;1.30;;;0.30;;
50631;SDS011;49583;45.590;-122.498;2023-06-14T00:54:51;0.60;;;0.30;;
50631;SDS011;49583;45.590;-122.498;2023-06-14T00:57:05;3.10;;;0.50;;
50631;SDS011;49583;45.590;-122.498;2023-06-14T00:59:19;1.00;;;0.40;;
50631;SDS011;49583;45.590;-122.498;2023-06-14T01:01:43;1.20;;;0.40;;
50631;SDS011;49583;45.590;-122.498;2023-06-14T01:04:07;0.80;;;0.30;;
50631;SDS011;49583;45.590;-122.498;2023-06-14T01:06:43;0.70;;;0.30;;
50631;SDS011;49583;45.590;-122.498;2023-06-14T01:09:27;1.30;;;0.40;;
50631;SDS011;49583;45.590;-122.498;2023-06-14T01:11:50;0.40;;;0.30;;
50631;SDS011;49583;45.590;-122.498;2023-06-14T01:14:17;4.80;;;0.30;;
50631;SDS011;49583;45.590;-122.498;2023-06-14T01:16:31;0.50;;;0.50;;
50631;SDS011;49583;45.590;-122.498;2023-06-14T01:18:47;1.30;;;0.60;;
50631;SDS011;49583;45.590;-122.498;2023-06-14T01:21:21;1.80;;;0.30;;
50631;SDS011;49583;45.590;-122.498;2023-06-14T01:23:49;0.80;;;0.40;;
50631;SDS011;49583;45.590;-122.498;2023-06-14T01:26:05;1.20;;;0.40;;
50631;SDS011;49583;45.590;-122.498;2023-06-14T01:28:28;1.90;;;0.40;;
50631;SDS011;49583;45.590;-122.498;2023-06-14T01:30:44;1.60;;;0.50;;
50631;SDS011;49583;45.590;-122.498;2023-06-14T01:33:13;2.00;;;0.40;;
50631;SDS011;49583;45.590;-122.498;2023-06-14T01:35:49;2.20;;;0.50;;
50631;SDS011;49583;45.590;-122.498;2023-06-14T01:38:24;2.90;;;1.10;;
50631;SDS011;49583;45.590;-122.498;2023-06-14T01:40:41;1.30;;;0.60;;
50631;SDS011;49583;45.590;-122.498;2023-06-14T01:42:56;0.90;;;0.60;;
50631;SDS011;49583;45.590;-122.498;2023-06-14T01:45:15;3.10;;;0.50;;
50631;SDS011;49583;45.590;-122.498;2023-06-14T01:47:31;0.90;;;0.40;;
50631;SDS011;49583;45.590;-122.498;2023-06-14T01:50:08;1.80;;;0.40;;
50631;SDS011;49583;45.590;-122.498;2023-06-14T01:52:33;5.30;;;0.60;;
50631;SDS011;49583;45.590;-122.498;2023-06-14T01:54:49;1.80;;;0.50;;
50631;SDS011;49583;45.590;-122.498;2023-06-14T01:57:23;3.70;;;0.50;;
50631;SDS011;49583;45.590;-122.498;2023-06-14T01:59:42;0.70;;;0.60;;
50631;SDS011;49583;45.590;-122.498;2023-06-14T02:02:16;1.30;;;0.70;;
50631;SDS011;49583;45.590;-122.498;2023-06-14T02:04:45;0.90;;;0.60;;
50631;SDS011;49583;45.590;-122.498;2023-06-14T02:07:07;0.90;;;0.50;;
50631;SDS011;49583;45.590;-122.498;2023-06-14T02:09:24;1.80;;;0.80;;
50631;SDS011;49583;45.590;-122.498;2023-06-14T02:11:46;1.20;;;0.50;;
50631;SDS011;49583;45.590;-122.498;2023-06-14T02:14:12;1.60;;;0.60;;
50631;SDS011;49583;45.590;-122.498;2023-06-14T02:16:30;1.40;;;0.60;;
50631;SDS011;49583;45.590;-122.498;2023-06-14T02:18:45;2.40;;;0.70;;
50631;SDS011;49583;45.590;-122.498;2023-06-14T02:21:09;1.50;;;0.70;;
50631;SDS011;49583;45.590;-122.498;2023-06-14T02:23:33;1.40;;;0.50;;
50631;SDS011;49583;45.590;-122.498;2023-06-14T02:25:47;5.00;;;0.80;;
50631;SDS011;49583;45.590;-122.498;2023-06-14T02:28:12;4.30;;;0.70;;
50631;SDS011;49583;45.590;-122.498;2023-06-14T02:30:27;3.50;;;0.90;;
50631;SDS011;49583;45.590;-122.498;2023-06-14T02:32:52;2.00;;;1.00;;
50631;SDS011;49583;45.590;-122.498;2023-06-14T02:35:27;4.00;;;1.00;;
50631;SDS011;49583;45.590;-122.498;2023-06-14T02:38:00;6.10;;;0.90;;
50631;SDS011;49583;45.590;-122.498;2023-06-14T02:40:43;5.30;;;0.80;;
50631;SDS011;49583;45.590;-122.498;2023-06-14T02:42:57;2.80;;;0.90;;
50631;SDS011;49583;45.590;-122.498;2023-06-14T02:45:34;3.30;;;0.80;;
50631;SDS011;49583;45.590;-122.498;2023-06-14T02:48:07;6.00;;;1.00;;
50631;SDS011;49583;45.590;-122.498;2023-06-14T02:50:21;4.00;;;1.10;;
50631;SDS011;49583;45.590;-122.498;2023-06-14T02:52:45;5.40;;;1.30;;
50631;SDS011;49583;45.590;-122.498;2023-06-14T02:55:05;6.60;;;1.50;;
50631;SDS011;49583;45.590;-122.498;2023-06-14T02:57:29;6.70;;;0.90;;
50631;SDS011;49583;45.590;-122.498;2023-06-14T02:59:46;5.70;;;1.40;;
50631;SDS011;49583;45.590;-122.498;2023-06-14T03:01:59;4.80;;;1.30;;
50631;SDS011;49583;45.590;-122.498;2023-06-14T03:04:32;5.60;;;1.50;;
50631;SDS011;49583;45.590;-122.498;2023-06-14T03:07:06;8.80;;;1.40;;
50631;SDS011;49583;45.590;-122.498;2023-06-14T03:09:31;12.20;;;2.00;;
50631;SDS011;49583;45.590;-122.498;2023-06-14T03:11:45;5.30;;;1.60;;
50631;SDS011;49583;45.590;-122.498;2023-06-14T03:14:03;5.50;;;1.50;;
50631;SDS011;49583;45.590;-122.498;2023-06-14T03:16:37;2.80;;;1.10;;
50631;SDS011;49583;45.590;-122.498;2023-06-14T03:19:11;6.40;;;1.80;;
50631;SDS011;49583;45.590;-122.498;2023-06-14T03:21:44;5.10;;;1.30;;
50631;SDS011;49583;45.590;-122.498;2023-06-14T03:24:08;3.90;;;1.40;;
50631;SDS011;49583;45.590;-122.498;2023-06-14T03:26:41;3.50;;;1.50;;
50631;SDS011;49583;45.590;-122.498;2023-06-14T03:29:04;6.40;;;1.30;;
50631;SDS011;49583;45.590;-122.498;2023-06-14T03:31:21;3.40;;;1.20;;
50631;SDS011;49583;45.590;-122.498;2023-06-14T03:33:46;5.00;;;1.20;;
50631;SDS011;49583;45.590;-122.498;2023-06-14T03:36:06;5.30;;;1.60;;
50631;SDS011;49583;45.590;-122.498;2023-06-14T03:38:29;3.70;;;1.00;;
50631;SDS011;49583;45.590;-122.498;2023-06-14T03:40:51;3.80;;;1.40;;
50631;SDS011;49583;45.590;-122.498;2023-06-14T03:43:22;5.80;;;2.00;;
50631;SDS011;49583;45.590;-122.498;2023-06-14T03:45:45;7.10;;;1.30;;
50631;SDS011;49583;45.590;-122.498;2023-06-14T03:48:01;5.50;;;0.80;;
50631;SDS011;49583;45.590;-122.498;2023-06-14T03:50:28;3.60;;;1.50;;
50631;SDS011;49583;45.590;-122.498;2023-06-14T03:52:55;5.70;;;1.10;;
50631;SDS011;49583;45.590;-122.498;2023-06-14T03:55:28;3.80;;;1.10;;
50631;SDS011;49583;45.590;-122.498;2023-06-14T03:58:22;7.70;;;1.20;;
50631;SDS011;49583;45.590;-122.498;2023-06-14T04:00:55;7.10;;;1.40;;
50631;SDS011;49583;45.590;-122.498;2023-06-14T04:03:11;5.60;;;1.20;;
50631;SDS011;49583;45.590;-122.498;2023-06-14T04:05:25;8.90;;;1.40;;
50631;SDS011;49583;45.590;-122.498;2023-06-14T04:07:59;5.60;;;1.30;;
50631;SDS011;49583;45.590;-122.498;2023-06-14T04:10:22;11.00;;;1.30;;
50631;SDS011;49583;45.590;-122.498;2023-06-14T04:12:55;5.30;;;1.80;;
50631;SDS011;49583;45.590;-122.498;2023-06-14T04:15:10;3.80;;;1.70;;
50631;SDS011;49583;45.590;-122.498;2023-06-14T04:17:31;10.20;;;2.40;;
50631;SDS011;49583;45.590;-122.498;2023-06-14T04:19:56;13.00;;;1.90;;
50631;SDS011;49583;45.590;-122.498;2023-06-14T04:22:20;16.30;;;2.20;;
50631;SDS011;49583;45.590;-122.498;2023-06-14T04:24:47;6.00;;;1.70;;
50631;SDS011;49583;45.590;-122.498;2023-06-14T04:27:30;9.80;;;1.60;;
50631;SDS011;49583;45.590;-122.498;2023-06-14T04:30:06;7.70;;;2.10;;
50631;SDS011;49583;45.590;-122.498;2023-06-14T04:32:36;10.70;;;1.90;;
50631;SDS011;49583;45.590;-122.498;2023-06-14T04:35:02;13.40;;;2.40;;
50631;SDS011;49583;45.590;-122.498;2023-06-14T04:37:40;9.30;;;1.80;;
50631;SDS011;49583;45.590;-122.498;2023-06-14T04:40:05;10.40;;;2.20;;
50631;SDS011;49583;45.590;-122.498;2023-06-14T04:42:23;11.00;;;2.10;;
50631;SDS011;49583;45.590;-122.498;2023-06-14T04:44:50;8.80;;;2.20;;
50631;SDS011;49583;45.590;-122.498;2023-06-14T04:47:05;11.10;;;2.40;;
50631;SDS011;49583;45.590;-122.498;2023-06-14T04:49:28;7.40;;;2.00;;
50631;SDS011;49583;45.590;-122.498;2023-06-14T04:51:44;8.00;;;2.50;;
50631;SDS011;49583;45.590;-122.498;2023-06-14T04:54:01;13.10;;;2.40;;
50631;SDS011;49583;45.590;-122.498;2023-06-14T04:56:27;9.10;;;2.40;;
50631;SDS011;49583;45.590;-122.498;2023-06-14T04:58:59;15.20;;;2.40;;
50631;SDS011;49583;45.590;-122.498;2023-06-14T05:01:31;8.80;;;1.60;;
50631;SDS011;49583;45.590;-122.498;2023-06-14T05:03:45;6.50;;;1.80;;
50631;SDS011;49583;45.590;-122.498;2023-06-14T05:05:58;9.60;;;2.10;;
50631;SDS011;49583;45.590;-122.498;2023-06-14T05:08:11;11.80;;;2.70;;
50631;SDS011;49583;45.590;-122.498;2023-06-14T05:10:34;16.10;;;2.80;;
50631;SDS011;49583;45.590;-122.498;2023-06-14T05:12:47;11.80;;;2.00;;
50631;SDS011;49583;45.590;-122.498;2023-06-14T05:15:10;14.80;;;2.80;;
50631;SDS011;49583;45.590;-122.498;2023-06-14T05:17:29;12.30;;;3.00;;
50631;SDS011;49583;45.590;-122.498;2023-06-14T05:19:53;11.80;;;2.90;;
50631;SDS011;49583;45.590;-122.498;2023-06-14T05:22:16;9.20;;;2.50;;
50631;SDS011;49583;45.590;-122.498;2023-06-14T05:24:39;13.60;;;2.80;;
50631;SDS011;49583;45.590;-122.498;2023-06-14T05:27:01;9.40;;;2.50;;
50631;SDS011;49583;45.590;-122.498;2023-06-14T05:29:26;9.00;;;2.60;;
50631;SDS011;49583;45.590;-122.498;2023-06-14T05:31:59;8.80;;;2.20;;
50631;SDS011;49583;45.590;-122.498;2023-06-14T05:34:23;10.70;;;2.30;;
50631;SDS011;49583;45.590;-122.498;2023-06-14T05:36:45;10.80;;;2.10;;
50631;SDS011;49583;45.590;-122.498;2023-06-14T05:39:01;6.70;;;1.80;;
50631;SDS011;49583;45.590;-122.498;2023-06-14T05:41:14;12.80;;;2.50;;
50631;SDS011;49583;45.590;-122.498;2023-06-14T05:43:38;13.10;;;2.20;;
50631;SDS011;49583;45.590;-122.498;2023-06-14T05:46:01;10.10;;;2.20;;
50631;SDS011;49583;45.590;-122.498;2023-06-14T05:48:14;11.80;;;2.80;;
50631;SDS011;49583;45.590;-122.498;2023-06-14T05:50:47;9.60;;;2.50;;
50631;SDS011;49583;45.590;-122.498;2023-06-14T05:53:00;11.40;;;2.40;;
50631;SDS011;49583;45.590;-122.498;2023-06-14T05:55:33;9.90;;;2.50;;
50631;SDS011;49583;45.590;-122.498;2023-06-14T05:57:47;9.30;;;2.20;;
50631;SDS011;49583;45.590;-122.498;2023-06-14T06:00:00;10.50;;;2.10;;
50631;SDS011;49583;45.590;-122.498;2023-06-14T06:02:18;16.50;;;3.20;;
50631;SDS011;49583;45.590;-122.498;2023-06-14T06:04:41;12.50;;;2.50;;
50631;SDS011;49583;45.590;-122.498;2023-06-14T06:07:05;10.80;;;2.30;;
50631;SDS011;49583;45.590;-122.498;2023-06-14T06:09:18;11.00;;;2.20;;
50631;SDS011;49583;45.590;-122.498;2023-06-14T06:11:31;12.90;;;2.30;;
50631;SDS011;49583;45.590;-122.498;2023-06-14T06:14:08;11.90;;;2.40;;
50631;SDS011;49583;45.590;-122.498;2023-06-14T06:16:32;10.80;;;2.20;;
50631;SDS011;49583;45.590;-122.498;2023-06-14T06:19:05;10.50;;;2.90;;
50631;SDS011;49583;45.590;-122.498;2023-06-14T06:21:38;8.50;;;2.30;;
50631;SDS011;49583;45.590;-122.498;2023-06-14T06:24:01;12.80;;;2.80;;
50631;SDS011;49583;45.590;-122.498;2023-06-14T06:26:18;8.70;;;2.20;;
50631;SDS011;49583;45.590;-122.498;2023-06-14T06:28:35;10.90;;;2.70;;
50631;SDS011;49583;45.590;-122.498;2023-06-14T06:31:08;9.60;;;2.30;;
50631;SDS011;49583;45.590;-122.498;2023-06-14T06:33:30;10.60;;;2.10;;
50631;SDS011;49583;45.590;-122.498;2023-06-14T06:35:43;10.50;;;2.60;;
50631;SDS011;49583;45.590;-122.498;2023-06-14T06:37:59;10.60;;;2.50;;
50631;SDS011;49583;45.590;-122.498;2023-06-14T06:40:15;8.20;;;1.90;;
50631;SDS011;49583;45.590;-122.498;2023-06-14T06:42:28;11.50;;;2.70;;
50631;SDS011;49583;45.590;-122.498;2023-06-14T06:45:01;14.90;;;2.30;;
50631;SDS011;49583;45.590;-122.498;2023-06-14T06:47:25;11.00;;;2.80;;
50631;SDS011;49583;45.590;-122.498;2023-06-14T06:49:58;10.30;;;2.30;;
50631;SDS011;49583;45.590;-122.498;2023-06-14T06:52:11;8.90;;;2.90;;
50631;SDS011;49583;45.590;-122.498;2023-06-14T06:54:24;17.50;;;2.60;;
50631;SDS011;49583;45.590;-122.498;2023-06-14T06:56:48;11.50;;;2.80;;
50631;SDS011;49583;45.590;-122.498;2023-06-14T06:59:03;11.70;;;2.60;;
50631;SDS011;49583;45.590;-122.498;2023-06-14T07:01:16;11.70;;;2.30;;
50631;SDS011;49583;45.590;-122.498;2023-06-14T07:03:30;15.70;;;3.50;;
50631;SDS011;49583;45.590;-122.498;2023-06-14T07:05:43;8.60;;;2.10;;
50631;SDS011;49583;45.590;-122.498;2023-06-14T07:08:08;9.20;;;2.30;;
50631;SDS011;49583;45.590;-122.498;2023-06-14T07:10:31;13.70;;;2.30;;
50631;SDS011;49583;45.590;-122.498;2023-06-14T07:12:57;10.10;;;2.50;;
50631;SDS011;49583;45.590;-122.498;2023-06-14T07:15:11;13.30;;;3.00;;
50631;SDS011;49583;45.590;-122.498;2023-06-14T07:17:27;9.70;;;2.50;;
50631;SDS011;49583;45.590;-122.498;2023-06-14T07:19:40;16.40;;;2.30;;
50631;SDS011;49583;45.590;-122.498;2023-06-14T07:22:05;13.30;;;2.50;;
50631;SDS011;49583;45.590;-122.498;2023-06-14T07:24:29;15.40;;;3.00;;
50631;SDS011;49583;45.590;-122.498;2023-06-14T07:26:56;13.70;;;2.70;;
50631;SDS011;49583;45.590;-122.498;2023-06-14T07:29:15;8.60;;;2.80;;
50631;SDS011;49583;45.590;-122.498;2023-06-14T07:31:29;15.20;;;3.40;;
50631;SDS011;49583;45.590;-122.498;2023-06-14T07:33:52;10.70;;;2.70;;
50631;SDS011;49583;45.590;-122.498;2023-06-14T07:36:19;12.30;;;2.50;;
50631;SDS011;49583;45.590;-122.498;2023-06-14T07:41:12;15.60;;;2.80;;
50631;SDS011;49583;45.590;-122.498;2023-06-14T07:43:27;15.00;;;2.80;;
50631;SDS011;49583;45.590;-122.498;2023-06-14T07:45:40;14.10;;;2.80;;
50631;SDS011;49583;45.590;-122.498;2023-06-14T07:48:09;16.10;;;2.80;;
50631;SDS011;49583;45.590;-122.498;2023-06-14T07:50:43;12.90;;;3.10;;
50631;SDS011;49583;45.590;-122.498;2023-06-14T07:52:56;12.00;;;2.90;;
50631;SDS011;49583;45.590;-122.498;2023-06-14T07:55:13;17.00;;;3.00;;
50631;SDS011;49583;45.590;-122.498;2023-06-14T07:57:37;14.30;;;2.80;;
50631;SDS011;49583;45.590;-122.498;2023-06-14T08:00:11;12.50;;;2.70;;
50631;SDS011;49583;45.590;-122.498;2023-06-14T08:02:46;13.30;;;3.10;;
50631;SDS011;49583;45.590;-122.498;2023-06-14T08:07:48;15.90;;;2.90;;
50631;SDS011;49583;45.590;-122.498;2023-06-14T08:10:07;13.10;;;2.70;;
50631;SDS011;49583;45.590;-122.498;2023-06-14T08:12:41;11.80;;;3.00;;
50631;SDS011;49583;45.590;-122.498;2023-06-14T08:14:54;11.40;;;2.50;;
50631;SDS011;49583;45.590;-122.498;2023-06-14T08:17:24;8.60;;;2.40;;
50631;SDS011;49583;45.590;-122.498;2023-06-14T08:19:48;8.50;;;2.40;;
50631;SDS011;49583;45.590;-122.498;2023-06-14T08:22:22;11.60;;;2.70;;
50631;SDS011;49583;45.590;-122.498;2023-06-14T08:24:48;8.20;;;2.20;;
50631;SDS011;49583;45.590;-122.498;2023-06-14T08:27:06;13.40;;;2.30;;
50631;SDS011;49583;45.590;-122.498;2023-06-14T08:29:32;6.60;;;2.10;;
50631;SDS011;49583;45.590;-122.498;2023-06-14T08:32:06;8.30;;;2.10;;
50631;SDS011;49583;45.590;-122.498;2023-06-14T08:34:39;10.00;;;2.00;;
50631;SDS011;49583;45.590;-122.498;2023-06-14T08:37:29;15.70;;;3.10;;
50631;SDS011;49583;45.590;-122.498;2023-06-14T08:39:52;9.00;;;2.90;;
50631;SDS011;49583;45.590;-122.498;2023-06-14T08:42:26;16.50;;;3.40;;
50631;SDS011;49583;45.590;-122.498;2023-06-14T08:44:48;11.10;;;2.40;;
50631;SDS011;49583;45.590;-122.498;2023-06-14T08:47:02;14.00;;;3.00;;
50631;SDS011;49583;45.590;-122.498;2023-06-14T08:49:26;15.70;;;3.50;;
50631;SDS011;49583;45.590;-122.498;2023-06-14T08:52:03;14.10;;;3.50;;
50631;SDS011;49583;45.590;-122.498;2023-06-14T08:54:20;10.10;;;2.30;;
50631;SDS011;49583;45.590;-122.498;2023-06-14T08:56:55;15.70;;;2.70;;
50631;SDS011;49583;45.590;-122.498;2023-06-14T08:59:29;10.80;;;2.50;;
50631;SDS011;49583;45.590;-122.498;2023-06-14T09:02:06;8.70;;;2.20;;
50631;SDS011;49583;45.590;-122.498;2023-06-14T09:04:42;12.20;;;2.60;;
50631;SDS011;49583;45.590;-122.498;2023-06-14T09:07:13;12.70;;;2.60;;
50631;SDS011;49583;45.590;-122.498;2023-06-14T09:09:40;19.10;;;3.30;;
50631;SDS011;49583;45.590;-122.498;2023-06-14T09:12:32;22.00;;;3.50;;
50631;SDS011;49583;45.590;-122.498;2023-06-14T09:14:55;11.60;;;3.50;;
50631;SDS011;49583;45.590;-122.498;2023-06-14T09:17:34;10.90;;;3.20;;
50631;SDS011;49583;45.590;-122.498;2023-06-14T09:19:58;13.50;;;4.50;;
50631;SDS011;49583;45.590;-122.498;2023-06-14T09:22:23;12.80;;;2.80;;
50631;SDS011;49583;45.590;-122.498;2023-06-14T09:24:36;8.20;;;2.70;;
50631;SDS011;49583;45.590;-122.498;2023-06-14T09:27:02;14.60;;;2.70;;
50631;SDS011;49583;45.590;-122.498;2023-06-14T09:29:16;13.10;;;2.20;;
50631;SDS011;49583;45.590;-122.498;2023-06-14T09:31:49;15.50;;;2.70;;
50631;SDS011;49583;45.590;-122.498;2023-06-14T09:34:11;17.40;;;2.60;;
50631;SDS011;49583;45.590;-122.498;2023-06-14T09:36:37;13.40;;;2.60;;
50631;SDS011;49583;45.590;-122.498;2023-06-14T09:39:12;14.70;;;2.60;;
50631;SDS011;49583;45.590;-122.498;2023-06-14T09:41:33;11.60;;;3.00;;
50631;SDS011;49583;45.590;-122.498;2023-06-14T09:43:58;15.30;;;3.10;;
50631;SDS011;49583;45.590;-122.498;2023-06-14T09:46:31;11.20;;;2.20;;
50631;SDS011;49583;45.590;-122.498;2023-06-14T09:48:55;14.20;;;2.50;;
50631;SDS011;49583;45.590;-122.498;2023-06-14T09:51:29;15.90;;;3.20;;
50631;SDS011;49583;45.590;-122.498;2023-06-14T09:53:43;16.80;;;2.80;;
50631;SDS011;49583;45.590;-122.498;2023-06-14T09:56:16;12.70;;;2.60;;
50631;SDS011;49583;45.590;-122.498;2023-06-14T09:58:57;9.90;;;2.70;;
50631;SDS011;49583;45.590;-122.498;2023-06-14T10:01:57;14.70;;;3.00;;
50631;SDS011;49583;45.590;-122.498;2023-06-14T10:04:16;17.60;;;3.00;;
50631;SDS011;49583;45.590;-122.498;2023-06-14T10:06:31;9.80;;;2.80;;
50631;SDS011;49583;45.590;-122.498;2023-06-14T10:08:46;16.10;;;3.20;;
50631;SDS011;49583;45.590;-122.498;2023-06-14T10:11:02;15.90;;;2.90;;
50631;SDS011;49583;45.590;-122.498;2023-06-14T10:13:15;12.30;;;3.10;;
50631;SDS011;49583;45.590;-122.498;2023-06-14T10:15:30;11.00;;;2.70;;
50631;SDS011;49583;45.590;-122.498;2023-06-14T10:17:49;11.60;;;2.90;;
50631;SDS011;49583;45.590;-122.498;2023-06-14T10:20:10;9.80;;;3.20;;
50631;SDS011;49583;45.590;-122.498;2023-06-14T10:22:33;10.80;;;2.20;;
50631;SDS011;49583;45.590;-122.498;2023-06-14T10:24:52;13.60;;;2.30;;
50631;SDS011;49583;45.590;-122.498;2023-06-14T10:27:06;14.10;;;3.40;;
50631;SDS011;49583;45.590;-122.498;2023-06-14T10:29:19;13.90;;;2.80;;
50631;SDS011;49583;45.590;-122.498;2023-06-14T10:31:44;11.60;;;2.50;;
50631;SDS011;49583;45.590;-122.498;2023-06-14T10:33:57;8.00;;;2.40;;
50631;SDS011;49583;45.590;-122.498;2023-06-14T10:36:25;11.10;;;2.90;;
50631;SDS011;49583;45.590;-122.498;2023-06-14T10:38:42;14.40;;;3.20;;
50631;SDS011;49583;45.590;-122.498;2023-06-14T10:40:54;13.70;;;2.70;;
50631;SDS011;49583;45.590;-122.498;2023-06-14T10:45:34;12.60;;;2.50;;
50631;SDS011;49583;45.590;-122.498;2023-06-14T10:47:46;15.70;;;3.00;;
50631;SDS011;49583;45.590;-122.498;2023-06-14T10:50:05;15.70;;;3.70;;
50631;SDS011;49583;45.590;-122.498;2023-06-14T10:52:26;11.10;;;2.80;;
50631;SDS011;49583;45.590;-122.498;2023-06-14T10:54:39;15.10;;;3.30;;
50631;SDS011;49583;45.590;-122.498;2023-06-14T10:57:16;13.10;;;2.30;;
50631;SDS011;49583;45.590;-122.498;2023-06-14T10:59:29;11.40;;;2.80;;
50631;SDS011;49583;45.590;-122.498;2023-06-14T11:01:45;11.60;;;2.80;;
50631;SDS011;49583;45.590;-122.498;2023-06-14T11:04:11;13.70;;;2.90;;
50631;SDS011;49583;45.590;-122.498;2023-06-14T11:06:26;12.70;;;2.60;;
50631;SDS011;49583;45.590;-122.498;2023-06-14T11:11:35;12.80;;;3.20;;
50631;SDS011;49583;45.590;-122.498;2023-06-14T11:13:51;18.50;;;2.90;;
50631;SDS011;49583;45.590;-122.498;2023-06-14T11:16:12;13.50;;;2.70;;
50631;SDS011;49583;45.590;-122.498;2023-06-14T11:18:26;15.10;;;2.90;;
50631;SDS011;49583;45.590;-122.498;2023-06-14T11:20:40;8.60;;;2.60;;
50631;SDS011;49583;45.590;-122.498;2023-06-14T11:22:55;11.20;;;3.40;;
50631;SDS011;49583;45.590;-122.498;2023-06-14T11:25:10;10.70;;;2.90;;
50631;SDS011;49583;45.590;-122.498;2023-06-14T11:27:24;8.60;;;2.80;;
50631;SDS011;49583;45.590;-122.498;2023-06-14T11:29:49;8.00;;;2.50;;
50631;SDS011;49583;45.590;-122.498;2023-06-14T11:32:03;13.60;;;2.70;;
50631;SDS011;49583;45.590;-122.498;2023-06-14T11:34:20;11.80;;;2.40;;
50631;SDS011;49583;45.590;-122.498;2023-06-14T11:36:34;10.20;;;3.00;;
50631;SDS011;49583;45.590;-122.498;2023-06-14T11:38:47;15.60;;;2.90;;
50631;SDS011;49583;45.590;-122.498;2023-06-14T11:41:08;10.70;;;2.20;;
50631;SDS011;49583;45.590;-122.498;2023-06-14T11:43:20;16.30;;;2.70;;
50631;SDS011;49583;45.590;-122.498;2023-06-14T11:45:34;15.80;;;3.10;;
50631;SDS011;49583;45.590;-122.498;2023-06-14T11:47:47;17.60;;;3.10;;
50631;SDS011;49583;45.590;-122.498;2023-06-14T11:50:00;12.10;;;2.80;;
50631;SDS011;49583;45.590;-122.498;2023-06-14T11:52:13;10.00;;;2.30;;
50631;SDS011;49583;45.590;-122.498;2023-06-14T11:54:26;7.90;;;2.90;;
50631;SDS011;49583;45.590;-122.498;2023-06-14T11:56:41;9.80;;;2.40;;
50631;SDS011;49583;45.590;-122.498;2023-06-14T11:58:54;11.10;;;2.30;;
50631;SDS011;49583;45.590;-122.498;2023-06-14T12:01:07;16.10;;;2.90;;
50631;SDS011;49583;45.590;-122.498;2023-06-14T12:03:26;12.00;;;5.00;;
50631;SDS011;49583;45.590;-122.498;2023-06-14T12:05:39;12.50;;;3.10;;
50631;SDS011;49583;45.590;-122.498;2023-06-14T12:07:57;14.80;;;2.70;;
50631;SDS011;49583;45.590;-122.498;2023-06-14T12:10:11;20.40;;;2.90;;
50631;SDS011;49583;45.590;-122.498;2023-06-14T12:12:24;10.60;;;3.50;;
50631;SDS011;49583;45.590;-122.498;2023-06-14T12:14:37;14.90;;;3.20;;
50631;SDS011;49583;45.590;-122.498;2023-06-14T12:16:50;12.70;;;3.00;;
50631;SDS011;49583;45.590;-122.498;2023-06-14T12:19:14;17.40;;;2.80;;
50631;SDS011;49583;45.590;-122.498;2023-06-14T12:21:27;11.40;;;2.70;;
50631;SDS011;49583;45.590;-122.498;2023-06-14T12:23:47;13.80;;;3.50;;
50631;SDS011;49583;45.590;-122.498;2023-06-14T12:26:01;12.70;;;3.50;;
50631;SDS011;49583;45.590;-122.498;2023-06-14T12:28:17;11.20;;;4.20;;
50631;SDS011;49583;45.590;-122.498;2023-06-14T12:30:29;8.90;;;2.10;;
50631;SDS011;49583;45.590;-122.498;2023-06-14T12:32:42;9.50;;;2.70;;
50631;SDS011;49583;45.590;-122.498;2023-06-14T12:34:57;14.70;;;2.40;;
50631;SDS011;49583;45.590;-122.498;2023-06-14T12:37:10;16.40;;;3.50;;
50631;SDS011;49583;45.590;-122.498;2023-06-14T12:39:23;13.10;;;2.90;;
50631;SDS011;49583;45.590;-122.498;2023-06-14T12:41:37;9.90;;;2.80;;
50631;SDS011;49583;45.590;-122.498;2023-06-14T12:43:50;13.90;;;2.70;;
50631;SDS011;49583;45.590;-122.498;2023-06-14T12:46:05;14.80;;;3.50;;
50631;SDS011;49583;45.590;-122.498;2023-06-14T12:48:18;18.10;;;3.20;;
50631;SDS011;49583;45.590;-122.498;2023-06-14T12:50:31;14.40;;;2.80;;
50631;SDS011;49583;45.590;-122.498;2023-06-14T12:52:44;13.40;;;2.70;;
50631;SDS011;49583;45.590;-122.498;2023-06-14T12:54:56;12.90;;;2.90;;
50631;SDS011;49583;45.590;-122.498;2023-06-14T12:57:09;13.80;;;2.80;;
50631;SDS011;49583;45.590;-122.498;2023-06-14T12:59:21;12.40;;;2.80;;
50631;SDS011;49583;45.590;-122.498;2023-06-14T13:01:40;9.20;;;2.60;;
50631;SDS011;49583;45.590;-122.498;2023-06-14T13:03:52;17.40;;;3.40;;
50631;SDS011;49583;45.590;-122.498;2023-06-14T13:06:05;17.10;;;3.20;;
50631;SDS011;49583;45.590;-122.498;2023-06-14T13:08:18;25.40;;;5.30;;
50631;SDS011;49583;45.590;-122.498;2023-06-14T13:10:31;13.10;;;2.40;;
50631;SDS011;49583;45.590;-122.498;2023-06-14T13:12:43;6.90;;;2.40;;
50631;SDS011;49583;45.590;-122.498;2023-06-14T13:14:56;9.60;;;2.70;;
50631;SDS011;49583;45.590;-122.498;2023-06-14T13:17:09;13.40;;;2.80;;
50631;SDS011;49583;45.590;-122.498;2023-06-14T13:19:22;15.90;;;2.50;;
50631;SDS011;49583;45.590;-122.498;2023-06-14T13:21:35;11.70;;;2.20;;
50631;SDS011;49583;45.590;-122.498;2023-06-14T13:23:48;10.70;;;2.30;;
50631;SDS011;49583;45.590;-122.498;2023-06-14T13:26:01;9.30;;;3.00;;
50631;SDS011;49583;45.590;-122.498;2023-06-14T13:28:13;20.50;;;3.10;;
50631;SDS011;49583;45.590;-122.498;2023-06-14T13:30:27;17.90;;;3.40;;
50631;SDS011;49583;45.590;-122.498;2023-06-14T13:32:39;23.10;;;3.20;;
50631;SDS011;49583;45.590;-122.498;2023-06-14T13:34:56;14.30;;;2.80;;
50631;SDS011;49583;45.590;-122.498;2023-06-14T13:37:08;23.00;;;4.20;;
50631;SDS011;49583;45.590;-122.498;2023-06-14T13:39:21;18.70;;;2.50;;
50631;SDS011;49583;45.590;-122.498;2023-06-14T13:41:33;19.60;;;3.00;;